createdAt,value
2018-05-14T00:00:34.569Z,100833.23
2018-05-14T00:01:37.907Z,100833.06
2018-05-14T00:02:41.266Z,100830.03
2018-05-14T00:03:44.629Z,100835.56
2018-05-14T00:04:47.931Z,100824.68
2018-05-14T00:05:51.306Z,100823.98
2018-05-14T00:06:54.664Z,100829.83
2018-05-14T00:07:58.094Z,100835.28
2018-05-14T00:09:01.428Z,100828.48
2018-05-14T00:10:04.760Z,100830.81
2018-05-14T00:11:08.107Z,100833.07
2018-05-14T00:12:11.418Z,100824.61
2018-05-14T00:13:15.201Z,100823.77
2018-05-14T00:14:18.511Z,100828.20
2018-05-14T00:15:21.858Z,100824.79
2018-05-14T00:16:25.347Z,100813.73
2018-05-14T00:17:28.650Z,100824.86
2018-05-14T00:18:31.970Z,100813.73
2018-05-14T00:19:35.337Z,100818.17
2018-05-14T00:20:38.661Z,100818.59
2018-05-14T00:21:42.002Z,100821.27
2018-05-14T00:22:45.353Z,100811.41
2018-05-14T00:23:48.728Z,100815.42
2018-05-14T00:24:52.054Z,100809.96
2018-05-14T00:25:55.404Z,100814.40
2018-05-14T00:26:58.750Z,100806.37
2018-05-14T00:28:02.085Z,100806.72
2018-05-14T00:29:05.415Z,100810.23
2018-05-14T00:30:08.962Z,100809.89
2018-05-14T00:31:12.288Z,100809.96
2018-05-14T00:32:15.646Z,100806.05
2018-05-14T00:33:18.968Z,100803.37
2018-05-14T00:34:22.287Z,100808.20
2018-05-14T00:35:25.618Z,100807.28
2018-05-14T00:36:28.955Z,100808.12
2018-05-14T00:37:32.315Z,100803.97
2018-05-14T00:38:35.667Z,100803.97
2018-05-14T00:39:38.987Z,100798.44
2018-05-14T00:40:42.315Z,100797.45
2018-05-14T00:41:45.638Z,100806.25
2018-05-14T00:42:49.117Z,100800.80
2018-05-14T00:43:52.638Z,100800.13
2018-05-14T00:44:55.987Z,100801.54
2018-05-14T00:45:59.319Z,100792.23
2018-05-14T00:47:02.671Z,100797.03
2018-05-14T00:48:06.014Z,100794.70
2018-05-14T00:49:09.339Z,100794.28
2018-05-14T00:50:12.677Z,100792.59
2018-05-14T00:51:15.995Z,100794.28
2018-05-14T00:52:19.321Z,100797.88
2018-05-14T00:53:22.671Z,100791.60
2018-05-14T00:54:25.993Z,100795.12
2018-05-14T00:55:29.311Z,100790.51
2018-05-14T00:56:32.650Z,100791.00
2018-05-14T00:57:36.058Z,100790.19
2018-05-14T00:58:39.607Z,100790.58
2018-05-14T00:59:42.955Z,100791.53
2018-05-14T01:00:46.273Z,100790.51
2018-05-14T01:01:49.595Z,100787.76
2018-05-14T01:02:52.921Z,100795.79
2018-05-14T01:03:56.295Z,100802.91
2018-05-14T01:04:59.626Z,100796.64
2018-05-14T01:06:02.948Z,100800.58
2018-05-14T01:07:06.273Z,100796.45
2018-05-14T01:08:09.603Z,100797.30
2018-05-14T01:09:12.952Z,100793.28
2018-05-14T01:10:16.279Z,100800.33
2018-05-14T01:11:19.610Z,100796.98
2018-05-14T01:12:22.945Z,100792.47
2018-05-14T01:13:26.280Z,100794.58
2018-05-14T01:14:29.666Z,100796.42
2018-05-14T01:15:33.001Z,100792.40
2018-05-14T01:16:36.343Z,100796.42
2018-05-14T01:17:39.668Z,100787.12
2018-05-14T01:18:42.991Z,100790.78
2018-05-14T01:19:46.451Z,100795.22
2018-05-14T01:20:49.786Z,100789.55
2018-05-14T01:21:53.120Z,100790.39
2018-05-14T01:22:56.506Z,100793.56
2018-05-14T01:23:59.834Z,100789.55
2018-05-14T01:25:03.422Z,100789.05
2018-05-14T01:26:06.740Z,100790.96
2018-05-14T01:27:10.071Z,100792.38
2018-05-14T01:28:13.505Z,100785.25
2018-05-14T01:29:16.752Z,100791.88
2018-05-14T01:30:20.253Z,100783.91
2018-05-14T01:31:23.581Z,100786.95
2018-05-14T01:32:26.900Z,100790.05
2018-05-14T01:33:30.239Z,100783.27
2018-05-14T01:34:33.570Z,100789.80
2018-05-14T01:35:36.932Z,100783.02
2018-05-14T01:36:40.261Z,100782.46
2018-05-14T01:37:43.586Z,100787.29
2018-05-14T01:38:46.917Z,100785.38
2018-05-14T01:39:50.241Z,100787.64
2018-05-14T01:40:53.614Z,100787.56
2018-05-14T01:41:57.088Z,100798.52
2018-05-14T01:43:00.402Z,100789.75
2018-05-14T01:44:03.718Z,100793.34
2018-05-14T01:45:07.047Z,100795.95
2018-05-14T01:46:10.405Z,100793.66
2018-05-14T01:47:13.734Z,100794.86
2018-05-14T01:48:17.077Z,100787.17
2018-05-14T01:49:20.411Z,100793.77
2018-05-14T01:50:23.748Z,100791.92
2018-05-14T01:51:32.610Z,100791.92
2018-05-14T01:52:35.941Z,100790.69
2018-05-14T01:53:39.299Z,100786.99
2018-05-14T01:54:42.667Z,100790.59
2018-05-14T01:55:45.988Z,100784.49
2018-05-14T01:56:49.334Z,100786.25
2018-05-14T01:57:52.691Z,100789.75
2018-05-14T01:58:56.030Z,100786.33
2018-05-14T01:59:59.400Z,100788.59
2018-05-14T02:01:02.730Z,100786.40
2018-05-14T02:02:06.074Z,100785.41
2018-05-14T02:03:09.527Z,100784.07
2018-05-14T02:04:12.856Z,100790.17
2018-05-14T02:05:16.186Z,100787.91
2018-05-14T02:06:19.494Z,100784.39
2018-05-14T02:07:22.861Z,100784.91
2018-05-14T02:08:26.181Z,100784.91
2018-05-14T02:09:29.499Z,100782.13
2018-05-14T02:10:32.850Z,100780.90
2018-05-14T02:11:36.179Z,100775.44
2018-05-14T02:12:39.551Z,100784.31
2018-05-14T02:13:42.870Z,100777.62
2018-05-14T02:14:46.198Z,100777.13
2018-05-14T02:15:49.528Z,100776.14
2018-05-14T02:16:52.851Z,100785.44
2018-05-14T02:17:56.210Z,100777.80
2018-05-14T02:18:59.510Z,100778.22
2018-05-14T02:20:02.844Z,100776.38
2018-05-14T02:21:06.204Z,100782.66
2018-05-14T02:22:09.506Z,100783.92
2018-05-14T02:23:12.875Z,100785.19
2018-05-14T02:24:16.227Z,100784.27
2018-05-14T02:25:19.689Z,100780.25
2018-05-14T02:26:23.011Z,100782.44
2018-05-14T02:27:26.330Z,100782.44
2018-05-14T02:28:29.674Z,100780.18
2018-05-14T02:29:33.002Z,100780.18
2018-05-14T02:30:36.608Z,100782.86
2018-05-14T02:31:39.923Z,100782.86
2018-05-14T02:32:43.244Z,100781.52
2018-05-14T02:33:46.593Z,100785.92
2018-05-14T02:34:49.929Z,100781.66
2018-05-14T02:35:53.239Z,100780.33
2018-05-14T02:36:56.567Z,100784.84
2018-05-14T02:37:59.910Z,100783.57
2018-05-14T02:39:03.275Z,100785.33
2018-05-14T02:40:06.603Z,100787.59
2018-05-14T02:41:09.919Z,100787.52
2018-05-14T02:42:13.244Z,100784.34
2018-05-14T02:43:16.628Z,100783.42
2018-05-14T02:44:19.978Z,100780.25
2018-05-14T02:45:23.304Z,100776.23
2018-05-14T02:46:26.623Z,100777.58
2018-05-14T02:47:29.964Z,100775.21
2018-05-14T02:48:33.288Z,100777.08
2018-05-14T02:49:36.663Z,100777.58
2018-05-14T02:50:40.011Z,100773.06
2018-05-14T02:51:43.336Z,100773.48
2018-05-14T02:52:46.663Z,100769.05
2018-05-14T02:53:49.983Z,100769.47
2018-05-14T02:54:53.431Z,100767.59
2018-05-14T02:55:56.752Z,100778.31
2018-05-14T02:57:00.085Z,100773.48
2018-05-14T02:58:03.491Z,100773.06
2018-05-14T02:59:06.848Z,100777.22
2018-05-14T03:00:10.205Z,100775.64
2018-05-14T03:01:13.536Z,100777.97
2018-05-14T03:02:16.867Z,100778.39
2018-05-14T03:03:20.207Z,100776.63
2018-05-14T03:04:23.618Z,100777.47
2018-05-14T03:05:26.903Z,100775.71
2018-05-14T03:06:30.228Z,100778.54
2018-05-14T03:07:33.559Z,100776.35
2018-05-14T03:08:36.977Z,100780.13
2018-05-14T03:09:40.319Z,100775.27
2018-05-14T03:10:43.672Z,100766.39
2018-05-14T03:11:46.991Z,100775.77
2018-05-14T03:12:50.327Z,100777.03
2018-05-14T03:13:53.634Z,100770.68
2018-05-14T03:14:56.978Z,100773.28
2018-05-14T03:16:00.373Z,100767.83
2018-05-14T03:17:03.699Z,100767.51
2018-05-14T03:18:07.028Z,100770.50
2018-05-14T03:19:10.351Z,100771.34
2018-05-14T03:20:13.679Z,100770.50
2018-05-14T03:21:17.050Z,100769.27
2018-05-14T03:22:20.371Z,100771.34
2018-05-14T03:23:23.716Z,100766.48
2018-05-14T03:24:27.063Z,100768.25
2018-05-14T03:25:30.391Z,100776.28
2018-05-14T03:26:33.749Z,100774.45
2018-05-14T03:27:37.085Z,100776.28
2018-05-14T03:28:40.424Z,100771.00
2018-05-14T03:29:43.754Z,100776.45
2018-05-14T03:30:47.242Z,100780.55
2018-05-14T03:31:50.603Z,100781.89
2018-05-14T03:32:53.932Z,100773.02
2018-05-14T03:33:57.255Z,100773.08
2018-05-14T03:35:00.586Z,100774.59
2018-05-14T03:36:03.922Z,100778.76
2018-05-14T03:37:07.626Z,100781.86
2018-05-14T03:38:11.001Z,100784.30
2018-05-14T03:39:14.341Z,100781.61
2018-05-14T03:40:17.823Z,100782.84
2018-05-14T03:41:21.225Z,100787.22
2018-05-14T03:42:24.598Z,100784.86
2018-05-14T03:43:27.939Z,100788.03
2018-05-14T03:44:31.275Z,100785.36
2018-05-14T03:45:34.582Z,100786.20
2018-05-14T03:46:38.006Z,100783.02
2018-05-14T03:47:41.350Z,100784.37
2018-05-14T03:48:44.666Z,100784.78
2018-05-14T03:49:48.006Z,100786.55
2018-05-14T03:50:51.331Z,100788.31
2018-05-14T03:51:54.651Z,100787.81
2018-05-14T03:52:58.001Z,100781.20
2018-05-14T03:54:01.330Z,100783.02
2018-05-14T03:55:04.667Z,100778.59
2018-05-14T03:56:08.026Z,100774.22
2018-05-14T03:57:11.335Z,100777.32
2018-05-14T03:58:26.518Z,100777.92
2018-05-14T03:59:41.695Z,100779.30
2018-05-14T04:00:56.829Z,100784.84
2018-05-14T04:02:22.727Z,100789.91
2018-05-14T04:03:37.737Z,100793.41
2018-05-14T04:04:52.770Z,100792.06
2018-05-14T04:07:31.333Z,100795.91
2018-05-14T04:08:34.663Z,100796.01
2018-05-14T04:09:38.024Z,100795.83
2018-05-14T04:10:41.353Z,100793.92
2018-05-14T04:11:44.673Z,100797.45
2018-05-14T04:12:48.022Z,100793.36
2018-05-14T04:13:51.340Z,100790.93
2018-05-14T04:14:54.702Z,100790.68
2018-05-14T04:15:58.271Z,100789.94
2018-05-14T04:17:01.661Z,100790.68
2018-05-14T04:18:04.999Z,100784.41
2018-05-14T04:19:08.347Z,100791.03
2018-05-14T04:20:11.805Z,100783.84
2018-05-14T04:21:15.046Z,100793.64
2018-05-14T04:22:18.356Z,100786.09
2018-05-14T04:23:21.676Z,100789.13
2018-05-14T04:24:25.009Z,100785.19
2018-05-14T04:25:28.356Z,100783.77
2018-05-14T04:26:31.669Z,100789.63
2018-05-14T04:27:35.019Z,100780.25
2018-05-14T04:28:38.349Z,100782.58
2018-05-14T04:29:41.699Z,100784.83
2018-05-14T04:30:45.056Z,100783.49
2018-05-14T04:31:48.466Z,100783.49
2018-05-14T04:32:51.787Z,100777.89
2018-05-14T04:33:55.112Z,100779.30
2018-05-14T04:34:58.458Z,100772.78
2018-05-14T04:36:01.942Z,100772.44
2018-05-14T04:37:05.258Z,100778.28
2018-05-14T04:38:08.622Z,100767.65
2018-05-14T04:39:11.943Z,100762.78
2018-05-14T04:40:15.273Z,100765.04
2018-05-14T04:41:18.637Z,100763.21
2018-05-14T04:42:21.962Z,100764.05
2018-05-14T04:43:25.324Z,100768.49
2018-05-14T04:44:28.635Z,100771.09
2018-05-14T04:45:32.000Z,100765.74
2018-05-14T04:46:35.358Z,100761.73
2018-05-14T04:47:38.709Z,100757.29
2018-05-14T04:48:42.030Z,100756.80
2018-05-14T04:49:45.345Z,100757.22
2018-05-14T04:50:48.681Z,100754.44
2018-05-14T04:51:52.038Z,100746.75
2018-05-14T04:52:55.392Z,100755.77
2018-05-14T04:53:58.719Z,100754.86
2018-05-14T04:55:02.079Z,100745.06
2018-05-14T04:56:05.383Z,100751.69
2018-05-14T04:57:08.799Z,100754.78
2018-05-14T04:58:12.130Z,100757.81
2018-05-14T04:59:15.522Z,100756.20
2018-05-14T05:00:18.843Z,100757.04
2018-05-14T05:01:22.142Z,100756.61
2018-05-14T05:02:25.489Z,100762.25
2018-05-14T05:03:28.814Z,100766.51
2018-05-14T05:04:32.382Z,100766.86
2018-05-14T05:05:35.726Z,100767.28
2018-05-14T05:06:39.079Z,100762.34
2018-05-14T05:07:42.674Z,100764.53
2018-05-14T05:08:46.012Z,100762.77
2018-05-14T05:09:49.338Z,100764.11
2018-05-14T05:10:52.869Z,100762.59
2018-05-14T05:11:56.349Z,100763.44
2018-05-14T05:12:59.707Z,100765.20
2018-05-14T05:14:03.039Z,100765.27
2018-05-14T05:15:06.364Z,100762.59
2018-05-14T05:16:09.732Z,100765.63
2018-05-14T05:17:13.355Z,100772.31
2018-05-14T05:18:16.703Z,100766.05
2018-05-14T05:19:20.083Z,100770.06
2018-05-14T05:20:23.417Z,100777.10
2018-05-14T05:21:26.747Z,100776.08
2018-05-14T05:22:30.091Z,100782.45
2018-05-14T05:23:33.494Z,100779.70
2018-05-14T05:24:36.895Z,100789.42
2018-05-14T05:25:40.231Z,100789.00
2018-05-14T05:26:43.567Z,100789.85
2018-05-14T05:27:46.894Z,100791.27
2018-05-14T05:28:50.274Z,100796.20
2018-05-14T05:29:53.611Z,100790.77
2018-05-14T05:30:56.930Z,100794.44
2018-05-14T05:32:00.506Z,100793.45
2018-05-14T05:33:03.851Z,100783.16
2018-05-14T05:34:07.226Z,100782.55
2018-05-14T05:35:10.555Z,100782.41
2018-05-14T05:36:14.131Z,100781.31
2018-05-14T05:37:17.471Z,100772.71
2018-05-14T05:38:20.803Z,100771.55
2018-05-14T05:39:24.170Z,100767.03
2018-05-14T05:40:27.733Z,100767.27
2018-05-14T05:41:31.060Z,100761.34
2018-05-14T05:42:34.532Z,100764.69
2018-05-14T05:43:37.868Z,100764.55
2018-05-14T05:44:41.216Z,100762.71
2018-05-14T05:45:44.562Z,100764.30
2018-05-14T05:46:47.899Z,100765.56
2018-05-14T05:47:51.284Z,100764.57
2018-05-14T05:48:54.610Z,100767.98
2018-05-14T05:49:57.968Z,100772.84
2018-05-14T05:51:01.328Z,100771.51
2018-05-14T05:52:04.736Z,100776.87
2018-05-14T05:53:08.065Z,100781.80
2018-05-14T05:54:11.392Z,100777.29
2018-05-14T05:55:14.787Z,100781.58
2018-05-14T05:56:18.114Z,100784.01
2018-05-14T05:57:21.578Z,100780.41
2018-05-14T05:58:24.907Z,100777.23
2018-05-14T05:59:28.247Z,100785.52
2018-05-14T06:00:31.606Z,100788.55
2018-05-14T06:01:34.926Z,100787.70
2018-05-14T06:02:38.243Z,100792.14
2018-05-14T06:03:41.564Z,100799.34
2018-05-14T06:04:44.900Z,100800.61
2018-05-14T06:05:48.262Z,100798.66
2018-05-14T06:06:51.643Z,100789.71
2018-05-14T06:07:54.943Z,100791.32
2018-05-14T06:08:58.362Z,100797.42
2018-05-14T06:10:01.707Z,100793.82
2018-05-14T06:11:05.062Z,100791.49
2018-05-14T06:12:08.475Z,100795.37
2018-05-14T06:13:11.815Z,100794.27
2018-05-14T06:14:15.139Z,100791.94
2018-05-14T06:15:18.462Z,100794.86
2018-05-14T06:16:21.867Z,100800.98
2018-05-14T06:17:25.199Z,100800.64
2018-05-14T06:18:28.541Z,100799.30
2018-05-14T06:19:31.927Z,100806.77
2018-05-14T06:20:35.421Z,100808.00
2018-05-14T06:21:38.866Z,100806.66
2018-05-14T06:22:42.200Z,100805.67
2018-05-14T06:23:45.613Z,100810.42
2018-05-14T06:24:48.895Z,100806.72
2018-05-14T06:25:52.218Z,100807.48
2018-05-14T06:26:55.587Z,100809.17
2018-05-14T06:27:59.001Z,100805.82
2018-05-14T06:29:02.325Z,100802.05
2018-05-14T06:30:05.660Z,100793.50
2018-05-14T06:31:08.969Z,100799.14
2018-05-14T06:32:12.473Z,100798.64
2018-05-14T06:33:15.803Z,100804.32
2018-05-14T06:34:19.129Z,100801.91
2018-05-14T06:35:22.451Z,100808.12
2018-05-14T06:36:25.777Z,100804.34
2018-05-14T06:37:29.117Z,100808.70
2018-05-14T06:38:32.497Z,100807.19
2018-05-14T06:40:45.590Z,100808.45
2018-05-14T06:41:48.875Z,100811.91
2018-05-14T06:42:52.227Z,100805.02
2018-05-14T06:43:55.560Z,100812.91
2018-05-14T06:44:58.880Z,100807.79
2018-05-14T06:46:02.202Z,100811.66
2018-05-14T06:47:05.625Z,100814.16
2018-05-14T06:48:09.233Z,100809.08
2018-05-14T06:49:12.634Z,100805.56
2018-05-14T06:50:16.211Z,100810.59
2018-05-14T06:51:19.537Z,100805.74
2018-05-14T06:52:22.871Z,100810.50
2018-05-14T06:53:26.223Z,100811.27
2018-05-14T06:54:29.538Z,100819.24
2018-05-14T06:55:32.970Z,100822.23
2018-05-14T06:56:36.283Z,100822.94
2018-05-14T06:57:39.606Z,100818.80
2018-05-14T06:58:42.957Z,100822.67
2018-05-14T06:59:46.284Z,100817.23
2018-05-14T07:00:49.663Z,100822.42
2018-05-14T07:01:53.023Z,100820.08
2018-05-14T07:02:56.344Z,100822.08
2018-05-14T07:03:59.715Z,100826.20
2018-05-14T07:05:03.035Z,100820.08
2018-05-14T07:06:06.351Z,100822.95
2018-05-14T07:07:09.675Z,100817.41
2018-05-14T07:08:13.006Z,100822.55
2018-05-14T07:09:16.364Z,100823.63
2018-05-14T07:10:19.723Z,100823.02
2018-05-14T07:11:23.971Z,100828.16
2018-05-14T07:12:27.242Z,100830.66
2018-05-14T07:13:30.567Z,100822.38
2018-05-14T07:14:33.916Z,100816.83
2018-05-14T07:15:37.255Z,100824.12
2018-05-14T07:16:40.568Z,100818.52
2018-05-14T07:17:43.903Z,100826.13
2018-05-14T07:18:47.219Z,100809.80
2018-05-14T07:19:50.577Z,100816.16
2018-05-14T07:20:53.934Z,100808.04
2018-05-14T07:21:57.253Z,100807.63
2018-05-14T07:23:00.586Z,100812.42
2018-05-14T07:24:03.904Z,100810.48
2018-05-14T07:25:07.261Z,100812.31
2018-05-14T07:26:10.729Z,100808.80
2018-05-14T07:27:13.956Z,100808.61
2018-05-14T07:28:17.312Z,100804.73
2018-05-14T07:29:20.639Z,100808.91
2018-05-14T07:30:23.983Z,100807.57
2018-05-14T07:31:27.311Z,100811.75
2018-05-14T07:32:30.823Z,100809.56
2018-05-14T07:33:34.400Z,100809.64
2018-05-14T07:34:37.742Z,100809.95
2018-05-14T07:35:41.084Z,100807.95
2018-05-14T07:36:44.509Z,100806.75
2018-05-14T07:37:47.841Z,100806.83
2018-05-14T07:38:51.163Z,100811.20
2018-05-14T07:39:54.503Z,100817.15
2018-05-14T07:40:57.837Z,100810.16
2018-05-14T07:42:01.187Z,100814.19
2018-05-14T07:43:04.516Z,100813.75
2018-05-14T07:44:07.838Z,100812.31
2018-05-14T07:45:11.178Z,100812.10
2018-05-14T07:46:14.524Z,100810.66
2018-05-14T07:47:17.843Z,100817.03
2018-05-14T07:48:21.611Z,100815.67
2018-05-14T07:49:24.932Z,100819.25
2018-05-14T07:50:28.596Z,100811.08
2018-05-14T07:51:31.944Z,100817.88
2018-05-14T07:52:35.395Z,100808.19
2018-05-14T07:53:38.741Z,100812.39
2018-05-14T07:54:42.348Z,100817.58
2018-05-14T07:55:45.663Z,100817.66
2018-05-14T07:56:49.007Z,100823.55
2018-05-14T07:57:52.322Z,100814.66
2018-05-14T07:58:55.635Z,100819.84
2018-05-14T07:59:58.959Z,100814.26
2018-05-14T08:01:02.274Z,100816.72
2018-05-14T08:02:05.627Z,100814.33
2018-05-14T08:03:08.933Z,100819.05
2018-05-14T08:04:12.251Z,100821.67
2018-05-14T08:05:15.575Z,100821.09
2018-05-14T08:06:19.043Z,100820.53
2018-05-14T08:07:22.257Z,100819.61
2018-05-14T08:08:25.565Z,100819.19
2018-05-14T08:09:28.892Z,100822.92
2018-05-14T08:10:32.242Z,100820.45
2018-05-14T08:11:35.567Z,100815.63
2018-05-14T08:12:38.899Z,100817.37
2018-05-14T08:13:42.211Z,100816.50
2018-05-14T08:14:45.560Z,100812.80
2018-05-14T08:15:48.877Z,100820.01
2018-05-14T08:16:52.190Z,100819.64
2018-05-14T08:17:55.532Z,100817.22
2018-05-14T08:18:58.883Z,100823.23
2018-05-14T08:20:02.205Z,100815.48
2018-05-14T08:21:05.522Z,100820.36
2018-05-14T08:22:08.851Z,100814.48
2018-05-14T08:23:12.180Z,100819.66
2018-05-14T08:24:15.495Z,100818.66
2018-05-14T08:25:18.834Z,100809.28
2018-05-14T08:26:22.152Z,100817.66
2018-05-14T08:27:25.515Z,100810.84
2018-05-14T08:28:28.848Z,100814.94
2018-05-14T08:29:32.159Z,100818.30
2018-05-14T08:30:35.488Z,100813.42
2018-05-14T08:31:38.807Z,100811.15
2018-05-14T08:32:42.285Z,100808.34
2018-05-14T08:33:45.908Z,100810.95
2018-05-14T08:34:49.223Z,100809.55
2018-05-14T08:35:52.566Z,100816.66
2018-05-14T08:36:55.880Z,100815.08
2018-05-14T08:37:59.194Z,100813.69
2018-05-14T08:39:02.547Z,100818.31
2018-05-14T08:40:05.932Z,100813.13
2018-05-14T08:41:09.208Z,100817.76
2018-05-14T08:42:12.520Z,100814.98
2018-05-14T08:43:15.854Z,100815.20
2018-05-14T08:44:19.193Z,100808.86
2018-05-14T08:45:22.562Z,100812.92
2018-05-14T08:46:25.899Z,100809.23
2018-05-14T08:47:29.205Z,100808.86
2018-05-14T08:48:32.551Z,100808.19
2018-05-14T08:49:35.892Z,100808.16
2018-05-14T08:50:39.219Z,100810.27
2018-05-14T08:51:42.543Z,100810.74
2018-05-14T08:52:45.951Z,100804.14
2018-05-14T08:53:49.204Z,100810.28
2018-05-14T08:54:52.553Z,100802.75
2018-05-14T08:55:55.856Z,100810.33
2018-05-14T08:56:59.185Z,100807.90
2018-05-14T08:58:02.507Z,100812.23
2018-05-14T08:59:05.836Z,100813.01
2018-05-14T09:00:09.186Z,100813.94
2018-05-14T09:01:12.513Z,100818.70
2018-05-14T09:02:15.822Z,100819.97
2018-05-14T09:03:19.138Z,100817.78
2018-05-14T09:04:22.472Z,100820.73
2018-05-14T09:05:25.820Z,100816.94
2018-05-14T09:06:29.122Z,100819.94
2018-05-14T09:07:32.462Z,100816.89
2018-05-14T09:08:35.788Z,100822.54
2018-05-14T09:09:39.136Z,100823.00
2018-05-14T09:10:42.481Z,100820.42
2018-05-14T09:11:45.797Z,100815.36
2018-05-14T09:12:49.160Z,100816.63
2018-05-14T09:13:52.472Z,100815.73
2018-05-14T09:14:55.786Z,100812.77
2018-05-14T09:15:59.189Z,100812.97
2018-05-14T09:17:02.489Z,100813.00
2018-05-14T09:18:05.866Z,100810.34
2018-05-14T09:19:09.360Z,100811.52
2018-05-14T09:20:12.675Z,100806.75
2018-05-14T09:21:16.025Z,100809.45
2018-05-14T09:22:19.356Z,100814.00
2018-05-14T09:23:22.705Z,100815.77
2018-05-14T09:24:26.014Z,100819.31
2018-05-14T09:25:29.401Z,100810.80
2018-05-14T09:26:32.730Z,100816.70
2018-05-14T09:27:36.048Z,100818.77
2018-05-14T09:28:39.467Z,100825.99
2018-05-14T09:29:42.803Z,100825.75
2018-05-14T09:30:46.126Z,100821.58
2018-05-14T09:31:49.495Z,100821.54
2018-05-14T09:32:53.166Z,100819.85
2018-05-14T09:33:56.494Z,100821.55
2018-05-14T09:34:59.810Z,100829.73
2018-05-14T09:36:03.152Z,100813.38
2018-05-14T09:37:06.524Z,100816.37
2018-05-14T09:38:09.828Z,100810.26
2018-05-14T09:39:13.141Z,100811.06
2018-05-14T09:40:16.456Z,100809.55
2018-05-14T09:41:19.778Z,100813.00
2018-05-14T09:42:23.151Z,100816.41
2018-05-14T09:43:26.497Z,100813.03
2018-05-14T09:44:29.860Z,100807.25
2018-05-14T09:45:33.106Z,100812.86
2018-05-14T09:46:36.508Z,100815.80
2018-05-14T09:47:39.982Z,100807.45
2018-05-14T09:48:43.300Z,100810.27
2018-05-14T09:49:46.627Z,100806.55
2018-05-14T09:50:49.968Z,100811.23
2018-05-14T09:51:53.333Z,100810.73
2018-05-14T09:52:56.697Z,100809.38
2018-05-14T09:54:00.013Z,100810.94
2018-05-14T09:55:03.329Z,100815.83
2018-05-14T09:56:06.651Z,100812.83
2018-05-14T09:57:09.972Z,100811.14
2018-05-14T09:58:13.310Z,100809.47
2018-05-14T09:59:16.623Z,100802.08
2018-05-14T10:00:19.959Z,100802.59
2018-05-14T10:01:23.274Z,100801.84
2018-05-14T10:02:26.615Z,100799.27
2018-05-14T10:03:30.106Z,100804.12
2018-05-14T10:04:33.371Z,100797.48
2018-05-14T10:05:36.694Z,100798.09
2018-05-14T10:06:40.024Z,100797.58
2018-05-14T10:07:43.426Z,100805.67
2018-05-14T10:08:46.752Z,100800.36
2018-05-14T10:09:50.079Z,100792.87
2018-05-14T10:10:53.403Z,100797.93
2018-05-14T10:11:56.736Z,100798.02
2018-05-14T10:13:00.070Z,100795.32
2018-05-14T10:14:03.497Z,100796.16
2018-05-14T10:15:06.823Z,100796.91
2018-05-14T10:16:10.237Z,100799.10
2018-05-14T10:17:14.047Z,100800.88
2018-05-14T10:18:17.396Z,100792.45
2018-05-14T10:19:20.728Z,100792.45
2018-05-14T10:20:24.087Z,100793.28
2018-05-14T10:21:27.444Z,100794.64
2018-05-14T10:22:30.745Z,100798.93
2018-05-14T10:23:34.160Z,100797.25
2018-05-14T10:24:37.588Z,100794.97
2018-05-14T10:25:40.831Z,100795.90
2018-05-14T10:26:44.146Z,100794.55
2018-05-14T10:27:47.464Z,100786.78
2018-05-14T10:28:50.779Z,100792.94
2018-05-14T10:29:54.135Z,100791.80
2018-05-14T10:30:57.471Z,100796.05
2018-05-14T10:32:00.950Z,100797.56
2018-05-14T10:33:04.402Z,100799.45
2018-05-14T10:34:07.714Z,100792.50
2018-05-14T10:35:11.050Z,100804.89
2018-05-14T10:36:14.383Z,100799.28
2018-05-14T10:37:17.695Z,100800.45
2018-05-14T10:38:21.047Z,100794.33
2018-05-14T10:39:24.371Z,100804.02
2018-05-14T10:40:27.720Z,100798.92
2018-05-14T10:41:31.031Z,100802.47
2018-05-14T10:42:34.355Z,100802.80
2018-05-14T10:43:37.675Z,100802.08
2018-05-14T10:44:41.010Z,100804.60
2018-05-14T10:45:44.346Z,100795.99
2018-05-14T10:46:47.698Z,100797.55
2018-05-14T10:47:51.014Z,100794.67
2018-05-14T10:48:54.502Z,100795.94
2018-05-14T10:49:57.814Z,100794.70
2018-05-14T10:51:01.154Z,100800.31
2018-05-14T10:52:04.473Z,100796.50
2018-05-14T10:53:07.791Z,100803.47
2018-05-14T10:54:11.128Z,100806.59
2018-05-14T10:55:14.451Z,100802.87
2018-05-14T10:56:17.799Z,100796.12
2018-05-14T10:57:21.144Z,100797.77
2018-05-14T10:58:24.479Z,100794.46
2018-05-14T10:59:27.814Z,100797.50
2018-05-14T11:00:31.153Z,100801.12
2018-05-14T11:01:34.498Z,100804.97
2018-05-14T11:02:37.810Z,100803.61
2018-05-14T11:03:41.123Z,100803.02
2018-05-14T11:04:44.472Z,100805.00
2018-05-14T11:05:47.801Z,100800.55
2018-05-14T11:06:51.161Z,100803.49
2018-05-14T11:07:54.458Z,100802.86
2018-05-14T11:08:57.797Z,100804.88
2018-05-14T11:10:01.110Z,100805.92
2018-05-14T11:11:04.490Z,100798.06
2018-05-14T11:12:07.882Z,100800.04
2018-05-14T11:13:11.207Z,100802.02
2018-05-14T11:14:14.546Z,100798.11
2018-05-14T11:15:18.041Z,100796.37
2018-05-14T11:16:21.419Z,100795.64
2018-05-14T11:17:24.758Z,100791.41
2018-05-14T11:18:28.104Z,100799.99
2018-05-14T11:19:31.473Z,100803.23
2018-05-14T11:20:34.778Z,100798.88
2018-05-14T11:21:38.150Z,100808.16
2018-05-14T11:22:41.557Z,100802.11
2018-05-14T11:23:44.871Z,100798.81
2018-05-14T11:24:48.247Z,100800.16
2018-05-14T11:25:51.580Z,100805.35
2018-05-14T11:26:55.039Z,100798.50
2018-05-14T11:27:58.383Z,100801.45
2018-05-14T11:29:01.748Z,100810.59
2018-05-14T11:30:05.093Z,100807.27
2018-05-14T11:31:08.406Z,100809.78
2018-05-14T11:32:11.719Z,100806.89
2018-05-14T11:33:15.265Z,100806.59
2018-05-14T11:34:18.610Z,100812.63
2018-05-14T11:35:21.949Z,100802.66
2018-05-14T11:36:25.282Z,100803.39
2018-05-14T11:37:28.607Z,100807.75
2018-05-14T11:38:31.967Z,100810.27
2018-05-14T11:39:35.340Z,100800.20
2018-05-14T11:40:38.654Z,100809.87
2018-05-14T11:41:42.023Z,100803.23
2018-05-14T11:42:45.396Z,100803.97
2018-05-14T11:43:48.776Z,100808.23
2018-05-14T11:44:52.112Z,100799.84
2018-05-14T11:45:55.454Z,100807.23
2018-05-14T11:46:58.781Z,100801.00
2018-05-14T11:48:02.189Z,100805.59
2018-05-14T11:49:05.569Z,100795.52
2018-05-14T11:50:08.914Z,100795.12
2018-05-14T11:51:12.248Z,100791.69
2018-05-14T11:52:15.601Z,100794.11
2018-05-14T11:53:18.920Z,100794.73
2018-05-14T11:54:22.297Z,100798.19
2018-05-14T11:55:25.617Z,100799.23
2018-05-14T11:56:28.998Z,100795.38
2018-05-14T11:57:32.340Z,100790.11
2018-05-14T11:58:35.704Z,100792.92
2018-05-14T11:59:39.161Z,100792.28
2018-05-14T12:00:42.473Z,100800.21
2018-05-14T12:01:45.875Z,100792.94
2018-05-14T12:02:49.260Z,100790.02
2018-05-14T12:03:52.697Z,100794.75
2018-05-14T12:04:56.047Z,100794.53
2018-05-14T12:05:59.392Z,100797.89
2018-05-14T12:07:02.806Z,100797.58